createdAt,value
2018-07-26T00:00:33.207Z,71.90
2018-07-26T00:03:57.880Z,71.60
2018-07-26T00:07:22.543Z,71.60
2018-07-26T00:10:47.273Z,71.50
2018-07-26T00:14:11.978Z,72.00
2018-07-26T00:17:36.786Z,72.10
2018-07-26T00:21:01.485Z,72.30
2018-07-26T00:24:26.127Z,72.70
2018-07-26T00:27:50.789Z,72.70
2018-07-26T00:31:15.491Z,72.50
2018-07-26T00:34:40.160Z,71.90
2018-07-26T00:38:04.963Z,71.90
2018-07-26T00:41:29.624Z,72.60
2018-07-26T00:44:54.253Z,72.80
2018-07-26T00:48:18.942Z,73.00
2018-07-26T00:51:43.665Z,73.90
2018-07-26T00:55:08.397Z,74.40
2018-07-26T00:58:33.065Z,74.40
2018-07-26T01:01:57.843Z,74.70
2018-07-26T01:05:22.483Z,75.10
2018-07-26T01:08:47.133Z,75.20
2018-07-26T01:12:11.833Z,75.10
2018-07-26T01:15:36.524Z,74.50
2018-07-26T01:19:01.300Z,74.20
2018-07-26T01:22:25.982Z,75.10
2018-07-26T01:25:50.644Z,74.60
2018-07-26T01:29:15.392Z,74.90
2018-07-26T01:32:40.031Z,75.00
2018-07-26T01:36:04.742Z,75.90
2018-07-26T01:39:29.387Z,76.50
2018-07-26T01:44:10.747Z,76.20
2018-07-26T01:47:35.418Z,76.70
2018-07-26T01:51:00.062Z,76.50
2018-07-26T01:54:24.700Z,76.10
2018-07-26T01:57:49.333Z,76.20
2018-07-26T02:01:14.283Z,75.50
2018-07-26T02:04:39.047Z,76.00
2018-07-26T02:08:03.755Z,76.00
2018-07-26T02:14:52.769Z,76.40
2018-07-26T02:18:17.465Z,77.30
2018-07-26T02:21:42.133Z,76.60
2018-07-26T02:25:06.834Z,77.70
2018-07-26T02:28:31.489Z,77.50
2018-07-26T02:31:56.189Z,77.50
2018-07-26T02:35:20.887Z,78.30
2018-07-26T02:38:45.625Z,79.80
2018-07-26T02:42:10.771Z,78.40
2018-07-26T02:48:59.784Z,79.20
2018-07-26T02:52:24.436Z,78.90
2018-07-26T02:55:49.163Z,78.80
2018-07-26T02:59:13.852Z,79.10
2018-07-26T03:02:38.785Z,79.80
2018-07-26T03:06:03.447Z,79.60
2018-07-26T03:09:28.169Z,79.30
2018-07-26T03:12:52.855Z,79.20
2018-07-26T03:16:17.580Z,78.90
2018-07-26T03:19:42.975Z,79.20
2018-07-26T03:23:07.717Z,79.90
2018-07-26T03:26:32.364Z,80.80
2018-07-26T03:29:57.060Z,80.40
2018-07-26T03:33:21.808Z,80.30
2018-07-26T03:40:10.833Z,80.20
2018-07-26T03:43:35.538Z,80.00
2018-07-26T03:47:00.362Z,79.90
2018-07-26T03:50:25.083Z,81.80
2018-07-26T03:53:49.739Z,81.10
2018-07-26T03:57:14.400Z,82.10
2018-07-26T04:00:39.065Z,81.70
2018-07-26T04:04:03.799Z,81.80
2018-07-26T04:07:28.452Z,81.50
2018-07-26T04:10:53.255Z,82.00
2018-07-26T04:14:18.100Z,82.40
2018-07-26T04:17:42.866Z,82.60
2018-07-26T04:21:07.544Z,82.70
2018-07-26T04:24:32.224Z,83.20
2018-07-26T04:27:57.063Z,83.30
2018-07-26T04:31:21.813Z,83.90
2018-07-26T04:34:46.593Z,84.00
2018-07-26T04:38:11.313Z,84.80
2018-07-26T04:41:36.133Z,85.60
2018-07-26T04:45:00.831Z,84.90
2018-07-26T04:48:25.489Z,85.30
2018-07-26T04:51:50.241Z,84.20
2018-07-26T04:55:14.941Z,83.80
2018-07-26T04:58:39.673Z,84.20
2018-07-26T05:02:04.495Z,84.10
2018-07-26T05:05:29.281Z,84.50
2018-07-26T05:08:53.988Z,84.40
2018-07-26T05:15:43.025Z,84.20
2018-07-26T05:19:07.748Z,84.40
2018-07-26T05:25:56.781Z,84.40
2018-07-26T05:29:21.475Z,85.10
2018-07-26T05:32:46.255Z,84.10
2018-07-26T05:36:11.013Z,83.50
2018-07-26T05:39:35.727Z,83.30
2018-07-26T05:43:00.527Z,82.90
2018-07-26T05:46:25.265Z,82.50
2018-07-26T05:49:49.997Z,82.40
2018-07-26T05:53:14.733Z,81.30
2018-07-26T05:56:39.427Z,81.70
2018-07-26T06:00:05.571Z,82.10
2018-07-26T06:03:30.374Z,80.60
2018-07-26T06:06:55.152Z,80.10
2018-07-26T06:10:19.824Z,80.10
2018-07-26T06:13:44.541Z,80.80
2018-07-26T06:17:09.400Z,79.90
2018-07-26T06:20:34.284Z,79.90
2018-07-26T06:27:23.512Z,79.10
2018-07-26T06:30:48.233Z,79.00
2018-07-26T06:34:13.100Z,79.10
2018-07-26T06:37:37.923Z,78.50
2018-07-26T06:41:02.658Z,77.70
2018-07-26T06:47:51.909Z,77.00
2018-07-26T06:51:16.775Z,76.90
2018-07-26T06:54:41.505Z,76.80
2018-07-26T06:58:06.271Z,75.80
2018-07-26T07:01:30.989Z,75.00
2018-07-26T07:04:55.696Z,74.20
2018-07-26T07:08:20.664Z,73.90
2018-07-26T07:11:45.549Z,73.80
2018-07-26T07:15:10.529Z,73.20
2018-07-26T07:18:35.464Z,73.30
2018-07-26T07:22:00.379Z,72.60
2018-07-26T07:25:25.178Z,72.30
2018-07-26T07:28:50.175Z,71.90
2018-07-26T07:32:14.870Z,71.80
2018-07-26T07:35:39.720Z,71.00
2018-07-26T07:39:06.578Z,70.80
2018-07-26T07:42:31.400Z,71.00
2018-07-26T07:45:56.178Z,70.10
2018-07-26T07:52:45.411Z,69.80
2018-07-26T07:56:10.377Z,69.60
2018-07-26T07:59:35.325Z,68.50
2018-07-26T08:02:59.964Z,67.80
2018-07-26T08:06:24.756Z,68.50
2018-07-26T08:09:49.591Z,68.70
2018-07-26T08:13:14.368Z,67.90
2018-07-26T08:16:39.145Z,67.90
2018-07-26T08:26:53.415Z,65.00
2018-07-26T08:30:18.093Z,64.80
2018-07-26T08:33:42.822Z,63.00
2018-07-26T08:37:07.665Z,64.10
2018-07-26T08:40:32.404Z,62.90
2018-07-26T08:43:57.143Z,62.60
2018-07-26T08:47:21.765Z,61.60
2018-07-26T08:50:46.473Z,61.90
2018-07-26T08:59:04.822Z,60.20
2018-07-26T09:02:29.927Z,59.70
2018-07-26T09:05:54.673Z,59.20
2018-07-26T09:09:19.473Z,59.70
2018-07-26T09:12:44.197Z,59.80
2018-07-26T09:16:08.980Z,59.50
2018-07-26T09:22:58.173Z,57.60
2018-07-26T09:26:22.932Z,56.70
2018-07-26T09:29:52.782Z,55.40
2018-07-26T09:33:17.634Z,55.70
2018-07-26T09:43:31.078Z,52.20
2018-07-26T09:46:55.790Z,53.00
2018-07-26T09:50:20.450Z,52.80
2018-07-26T09:53:45.188Z,53.00
2018-07-26T10:04:07.238Z,51.10
2018-07-26T10:07:34.174Z,50.50
2018-07-26T10:10:59.580Z,50.50
2018-07-26T10:14:24.976Z,50.70
2018-07-26T10:17:50.128Z,50.30
2018-07-26T10:21:15.640Z,48.70
2018-07-26T10:24:41.446Z,47.60
2018-07-26T10:28:07.638Z,48.70
2018-07-26T10:31:33.190Z,48.20
2018-07-26T10:34:59.494Z,46.10
2018-07-26T10:38:24.364Z,44.70
2018-07-26T10:41:57.013Z,45.30
2018-07-26T10:45:23.133Z,44.80
2018-07-26T10:48:48.693Z,45.90
2018-07-26T10:55:37.994Z,45.90
2018-07-26T10:59:02.695Z,44.90
2018-07-26T11:02:27.376Z,45.00
2018-07-26T11:05:52.186Z,43.70
2018-07-26T11:09:17.007Z,43.00
2018-07-26T11:12:41.752Z,41.50
2018-07-26T11:16:16.353Z,41.50
2018-07-26T11:19:41.090Z,40.70
2018-07-26T11:23:05.767Z,38.20
2018-07-26T11:26:30.427Z,39.30
2018-07-26T11:29:55.226Z,40.80
2018-07-26T11:33:19.876Z,39.20
2018-07-26T11:36:44.588Z,39.20
2018-07-26T11:40:09.325Z,38.90
2018-07-26T11:43:34.106Z,37.70
2018-07-26T11:46:58.795Z,39.30
2018-07-26T11:50:23.536Z,39.20
2018-07-26T11:53:48.222Z,36.80
2018-07-26T11:57:12.879Z,37.60
2018-07-26T12:00:37.689Z,35.30
2018-07-26T12:04:02.653Z,36.00
2018-07-26T12:07:27.356Z,35.70
2018-07-26T12:10:52.228Z,35.90
2018-07-26T12:14:17.062Z,35.70
2018-07-26T12:17:42.310Z,34.30
2018-07-26T12:21:08.975Z,32.00
2018-07-26T12:24:33.693Z,32.50
2018-07-26T12:27:58.506Z,33.40
2018-07-26T12:31:23.557Z,33.50
2018-07-26T12:38:12.669Z,32.30
2018-07-26T12:41:37.370Z,32.20
2018-07-26T12:45:02.049Z,32.20
2018-07-26T13:02:04.292Z,30.40
2018-07-26T13:05:29.064Z,29.40
2018-07-26T13:08:54.104Z,26.30
2018-07-26T13:12:18.903Z,26.90
2018-07-26T13:15:43.608Z,27.80
2018-07-26T13:19:08.478Z,27.70
2018-07-26T13:22:33.121Z,28.70
2018-07-26T13:25:57.863Z,28.70
2018-07-26T13:29:23.151Z,28.70
2018-07-26T13:32:47.829Z,28.20
2018-07-26T13:36:13.773Z,28.80
2018-07-26T13:39:38.607Z,27.80
2018-07-26T13:43:03.375Z,27.50
2018-07-26T13:46:28.152Z,28.00
2018-07-26T13:49:53.710Z,28.30
2018-07-26T13:53:18.453Z,29.70
2018-07-26T13:56:43.131Z,30.80
2018-07-26T14:00:07.992Z,29.10
2018-07-26T14:03:32.749Z,29.20
2018-07-26T14:06:57.649Z,29.30
2018-07-26T14:10:22.398Z,28.90
2018-07-26T14:13:47.061Z,29.10
2018-07-26T14:17:11.823Z,29.40
2018-07-26T14:20:36.517Z,29.70
2018-07-26T14:24:02.986Z,30.20
2018-07-26T14:27:27.881Z,30.10
2018-07-26T14:34:17.070Z,29.70
2018-07-26T14:37:41.788Z,29.70
2018-07-26T14:41:06.452Z,29.10
2018-07-26T14:44:31.108Z,29.20
2018-07-26T14:47:55.803Z,28.10
2018-07-26T14:54:44.994Z,29.90
2018-07-26T14:58:09.728Z,29.90
2018-07-26T15:01:34.458Z,29.70
2018-07-26T15:04:59.148Z,29.60
2018-07-26T15:08:23.800Z,29.10
2018-07-26T15:11:48.601Z,29.50
2018-07-26T15:15:13.286Z,29.40
2018-07-26T15:18:37.954Z,29.10
2018-07-26T15:22:02.712Z,29.10
2018-07-26T15:25:27.877Z,28.70
2018-07-26T15:28:52.555Z,28.60
2018-07-26T15:32:17.310Z,28.20
2018-07-26T15:35:41.965Z,28.40
2018-07-26T15:39:09.810Z,27.90
2018-07-26T15:42:34.544Z,27.90
2018-07-26T15:45:59.282Z,28.00
2018-07-26T15:49:23.954Z,27.50
2018-07-26T15:52:48.630Z,27.20
2018-07-26T15:56:13.337Z,27.10
2018-07-26T15:59:38.073Z,27.10
2018-07-26T16:03:02.856Z,27.40
2018-07-26T16:06:27.637Z,27.50
2018-07-26T16:09:52.341Z,27.50
2018-07-26T16:13:17.066Z,27.20
2018-07-26T16:16:41.813Z,26.80
2018-07-26T16:20:08.501Z,26.80
2018-07-26T16:23:33.174Z,27.00
2018-07-26T16:26:57.832Z,26.90
2018-07-26T16:30:22.648Z,27.40
2018-07-26T16:33:47.300Z,27.20
2018-07-26T16:37:12.052Z,27.00
2018-07-26T16:40:36.745Z,27.20
2018-07-26T16:44:01.451Z,26.80
2018-07-26T16:47:26.159Z,26.60
2018-07-26T16:50:50.842Z,26.30
2018-07-26T16:54:15.513Z,26.40
2018-07-26T16:57:40.286Z,26.40
2018-07-26T17:01:05.116Z,26.80
2018-07-26T17:04:29.773Z,27.10
2018-07-26T17:07:54.766Z,26.50
2018-07-26T17:11:19.756Z,26.90
2018-07-26T17:14:44.400Z,26.60
2018-07-26T17:18:09.652Z,27.00
2018-07-26T17:21:34.633Z,26.80
2018-07-26T17:24:59.408Z,27.20
2018-07-26T17:28:24.282Z,27.40
2018-07-26T17:31:49.080Z,27.30
2018-07-26T17:35:13.810Z,27.40
2018-07-26T17:38:38.524Z,27.20
2018-07-26T17:42:03.382Z,27.10
2018-07-26T17:45:28.273Z,26.90
2018-07-26T17:48:53.056Z,26.90
2018-07-26T17:52:17.895Z,27.10
2018-07-26T17:55:42.661Z,26.90
2018-07-26T17:59:07.749Z,27.30
2018-07-26T18:02:32.613Z,27.20
2018-07-26T18:05:57.523Z,27.70
2018-07-26T18:09:22.492Z,28.00
2018-07-26T18:12:47.279Z,28.80
2018-07-26T18:16:12.077Z,29.50
2018-07-26T18:19:36.020Z,30.10
2018-07-26T18:29:47.986Z,32.10
2018-07-26T18:33:11.962Z,32.60
2018-07-26T18:36:35.808Z,32.90
2018-07-26T18:39:59.769Z,33.40
2018-07-26T18:43:24.069Z,33.90
2018-07-26T18:46:48.005Z,34.30
2018-07-26T18:50:12.134Z,34.70
2018-07-26T18:53:36.236Z,35.20
2018-07-26T18:57:00.158Z,35.50
2018-07-26T19:00:24.155Z,36.10
2018-07-26T19:03:48.106Z,36.70
2018-07-26T19:07:12.070Z,37.10
2018-07-26T19:10:36.108Z,37.50
2018-07-26T19:14:00.102Z,38.00
2018-07-26T19:17:24.133Z,38.40
2018-07-26T19:20:49.019Z,38.90
2018-07-26T19:24:13.082Z,39.20
2018-07-26T19:31:01.728Z,40.20
2018-07-26T19:34:26.490Z,40.60
2018-07-26T19:37:51.260Z,41.10
2018-07-26T19:41:16.148Z,41.50
2018-07-26T19:44:40.865Z,41.80
2018-07-26T19:48:05.593Z,42.10
2018-07-26T19:51:30.571Z,42.70
2018-07-26T19:54:55.317Z,42.90
2018-07-26T20:01:44.377Z,43.70
2018-07-26T20:05:09.879Z,44.00
2018-07-26T20:08:34.725Z,44.30
2018-07-26T20:11:59.421Z,44.50
2018-07-26T20:15:24.183Z,44.90
2018-07-26T20:22:13.388Z,45.10
2018-07-26T20:25:45.383Z,46.20
2018-07-26T20:29:10.085Z,46.30
2018-07-26T20:32:34.903Z,46.00
2018-07-26T20:35:59.610Z,46.10
2018-07-26T20:39:24.283Z,46.60
2018-07-26T20:42:48.965Z,47.20
2018-07-26T20:49:38.182Z,47.60
2018-07-26T20:53:02.866Z,48.60
2018-07-26T20:56:27.638Z,48.50
2018-07-26T20:59:52.339Z,49.00
2018-07-26T21:03:17.084Z,48.70
2018-07-26T21:06:41.878Z,49.20
2018-07-26T21:10:08.407Z,49.60
2018-07-26T21:16:57.357Z,50.00
2018-07-26T21:20:22.056Z,50.40
2018-07-26T21:23:46.786Z,50.20
2018-07-26T21:34:00.090Z,50.20
2018-07-26T21:37:24.766Z,50.70
2018-07-26T21:40:49.415Z,51.00
2018-07-26T21:44:14.136Z,51.20
2018-07-26T21:47:38.833Z,51.80
2018-07-26T21:51:03.532Z,52.20
2018-07-26T21:54:28.186Z,52.60
2018-07-26T21:57:52.898Z,52.70
2018-07-26T22:04:42.296Z,54.00
2018-07-26T22:08:07.003Z,54.40
2018-07-26T22:14:57.071Z,55.90
2018-07-26T22:18:22.725Z,56.20
2018-07-26T22:21:47.382Z,56.90
2018-07-26T22:25:12.193Z,57.70
2018-07-26T22:28:36.899Z,57.60
2018-07-26T22:35:25.184Z,57.90
2018-07-26T22:38:49.120Z,57.80
2018-07-26T22:42:13.114Z,58.40
2018-07-26T22:45:37.471Z,58.50
2018-07-26T22:49:02.120Z,58.10
2018-07-26T22:52:26.009Z,59.20
2018-07-26T22:55:49.967Z,59.50
2018-07-26T22:59:13.898Z,60.10
2018-07-26T23:02:38.579Z,60.40
2018-07-26T23:06:03.248Z,60.40
2018-07-26T23:09:27.162Z,61.60
2018-07-26T23:16:15.403Z,61.80
2018-07-26T23:19:39.273Z,62.60
2018-07-26T23:23:03.192Z,62.30
2018-07-26T23:26:27.128Z,62.90
2018-07-26T23:29:51.001Z,63.00
2018-07-26T23:36:38.473Z,64.50
2018-07-26T23:40:02.375Z,64.10
2018-07-26T23:43:26.216Z,64.10
2018-07-26T23:46:50.097Z,64.70
2018-07-26T23:53:37.643Z,65.40
2018-07-26T23:57:01.540Z,66.30
